Time;durP1;ratioP1;P1;durP2;ratioP2;P2;SDS_P1;SDS_P2;PMS_P1;PMS_P2;Temp;Humidity;BMP_temperature;BMP_pressure;BME280_temperature;BME280_humidity;BME280_pressure;Samples;Min_cycle;Max_cycle;Signal;HPM_P1;HPM_P2
2022/08/26 00:00:29;;;;;;;48.83;19.98;;;22.10;99.90;;;;;;4805900;29;20054;-69
2022/08/26 00:02:56;;;;;;;54.55;20.45;;;22.40;99.90;;;;;;4806011;29;20403;-69
2022/08/26 00:05:23;;;;;;;46.95;18.77;;;21.80;99.90;;;;;;4791017;29;20043;-69
2022/08/26 00:07:49;;;;;;;41.42;17.75;;;22.20;99.90;;;;;;4805843;29;20080;-70
2022/08/26 00:10:15;;;;;;;43.90;16.35;;;22.20;99.90;;;;;;4805857;29;20050;-69
2022/08/26 00:12:41;;;;;;;48.45;17.95;;;21.70;99.90;;;;;;4806196;29;20058;-69
2022/08/26 00:15:09;;;;;;;32.78;16.55;;;20.30;99.90;;;;;;4790767;29;20438;-69
2022/08/26 00:17:35;;;;;;;50.85;18.42;;;21.00;99.90;;;;;;4790725;29;20043;-69
2022/08/26 00:20:01;;;;;;;50.90;17.58;;;;;;;;;;4805856;29;20038;-69
2022/08/26 00:22:27;;;;;;;44.40;17.83;;;;;;;;;;4805627;29;20150;-69
2022/08/26 00:24:53;;;;;;;49.25;17.88;;;;;;;;;;4805506;29;20050;-69
2022/08/26 00:27:19;;;;;;;53.85;17.60;;;22.00;99.90;;;;;;4805619;29;20126;-69
2022/08/26 00:29:45;;;;;;;42.88;17.58;;;;;;;;;;4805593;29;20146;-69
2022/08/26 00:32:11;;;;;;;46.10;16.15;;;;;;;;;;4805433;29;20047;-69
2022/08/26 00:34:37;;;;;;;50.13;17.02;;;;;;;;;;4805443;29;20510;-69
2022/08/26 00:37:04;;;;;;;41.42;16.13;;;22.00;99.90;;;;;;4805369;29;20050;-69
2022/08/26 00:39:30;;;;;;;37.88;14.35;;;20.10;99.90;;;;;;4805651;29;20042;-69
2022/08/26 00:41:56;;;;;;;39.28;14.25;;;21.70;99.90;;;;;;4805493;29;20050;-69
2022/08/26 00:44:22;;;;;;;34.58;12.40;;;19.80;99.90;;;;;;4795106;29;20054;-69
2022/08/26 00:46:52;;;;;;;46.33;13.88;;;20.00;99.90;;;;;;4806498;29;20059;-69
2022/08/26 00:49:40;;;;;;;38.60;12.35;;;21.50;99.90;;;;;;4806350;29;20061;-69
2022/08/26 00:52:11;;;;;;;39.17;12.10;;;22.00;99.90;;;;;;4807243;29;20047;-68
2022/08/26 00:54:45;;;;;;;32.08;13.02;;;21.00;99.90;;;;;;4813122;29;20047;-68
2022/08/26 00:57:15;;;;;;;36.53;14.63;;;21.70;99.90;;;;;;4802634;29;20047;-69
2022/08/26 00:59:41;;;;;;;43.20;12.95;;;21.90;99.90;;;;;;4809446;29;20066;-69
2022/08/26 01:02:07;;;;;;;42.70;12.85;;;20.20;99.90;;;;;;4805203;29;20055;-69
2022/08/26 01:04:36;;;;;;;37.35;12.57;;;21.10;99.90;;;;;;4806273;29;20122;-69
2022/08/26 01:07:03;;;;;;;39.78;11.07;;;21.70;99.90;;;;;;4804956;29;20043;-69
2022/08/26 01:09:29;;;;;;;29.30;10.77;;;21.20;99.90;;;;;;4789887;29;20043;-69
2022/08/26 01:11:58;;;;;;;33.75;9.25;;;20.90;99.90;;;;;;4804070;29;20046;-69
2022/08/26 01:14:28;;;;;;;32.03;8.60;;;21.80;99.90;;;;;;4805137;29;20047;-69
2022/08/26 01:16:54;;;;;;;38.15;7.97;;;21.40;99.90;;;;;;4790239;29;20049;-69
2022/08/26 01:19:31;;;;;;;30.90;6.85;;;20.20;99.90;;;;;;4789964;29;20489;-69
2022/08/26 01:22:01;;;;;;;36.03;7.45;;;20.40;99.90;;;;;;4789992;29;20126;-69
2022/08/26 01:24:29;;;;;;;34.20;6.55;;;20.60;99.90;;;;;;4789909;29;20057;-69
2022/08/26 01:27:03;;;;;;;32.70;5.68;;;20.70;99.90;;;;;;4804751;29;20086;-70
2022/08/26 01:29:31;;;;;;;27.42;6.15;;;20.30;99.90;;;;;;4804883;29;20096;-69
2022/08/26 01:31:57;;;;;;;22.20;5.60;;;20.70;99.90;;;;;;4789738;29;20515;-69
2022/08/26 01:34:28;;;;;;;24.83;5.25;;;19.40;99.90;;;;;;4790150;29;20112;-69
2022/08/26 01:37:01;;;;;;;18.10;3.90;;;21.40;99.90;;;;;;4804639;29;20500;-69
2022/08/26 01:39:27;;;;;;;20.45;4.28;;;20.20;99.90;;;;;;4804632;29;20047;-69
2022/08/26 01:41:56;;;;;;;20.25;4.05;;;20.40;99.90;;;;;;4804651;29;20467;-70
2022/08/26 01:44:26;;;;;;;17.30;3.20;;;20.70;99.90;;;;;;4789923;29;20047;-69
2022/08/26 01:46:53;;;;;;;13.32;3.03;;;19.30;99.90;;;;;;4805831;29;20077;-69
2022/08/26 01:49:20;;;;;;;22.23;3.30;;;21.00;99.90;;;;;;4804607;29;20130;-69
2022/08/26 01:51:49;;;;;;;19.40;3.83;;;20.80;99.90;;;;;;4804830;29;20050;-69
2022/08/26 01:54:15;;;;;;;18.80;3.75;;;;;;;;;;4804568;29;20047;-69
2022/08/26 01:56:41;;;;;;;22.40;4.28;;;20.50;99.90;;;;;;4804593;29;20070;-69
2022/08/26 01:59:10;;;;;;;23.08;3.65;;;20.70;99.90;;;;;;4804316;29;20504;-69
2022/08/26 02:01:36;;;;;;;18.65;3.70;;;21.30;99.90;;;;;;4804560;29;20051;-69
2022/08/26 02:04:29;;;;;;;17.67;3.38;;;21.10;99.90;;;;;;4790009;29;20135;-69
2022/08/26 02:06:56;;;;;;;24.83;3.78;;;21.20;99.90;;;;;;4804449;29;20572;-69
2022/08/26 02:09:24;;;;;;;22.73;3.25;;;21.10;99.90;;;;;;4804447;29;20496;-69
2022/08/26 02:11:51;;;;;;;22.58;4.18;;;21.20;99.90;;;;;;4804405;29;20063;-69
2022/08/26 02:14:28;;;;;;;24.13;3.55;;;19.50;99.90;;;;;;4804400;29;20050;-69
2022/08/26 02:16:54;;;;;;;21.17;3.88;;;19.20;99.90;;;;;;4804344;29;20055;-69
2022/08/26 02:19:30;;;;;;;19.55;3.70;;;20.20;99.90;;;;;;4774478;29;20492;-69
2022/08/26 02:22:01;;;;;;;25.25;3.55;;;21.00;99.90;;;;;;4804517;29;20107;-69
2022/08/26 02:24:44;;;;;;;28.00;4.32;;;20.60;99.90;;;;;;4807545;29;20047;-69
2022/08/26 02:27:10;;;;;;;20.42;3.55;;;19.10;99.90;;;;;;4807506;29;20438;-69
2022/08/26 02:29:42;;;;;;;28.98;4.00;;;19.30;99.90;;;;;;4807591;29;20047;-69
2022/08/26 02:32:09;;;;;;;19.55;3.20;;;21.10;99.90;;;;;;4807340;29;20047;-69
2022/08/26 02:34:35;;;;;;;24.38;4.30;;;19.90;99.90;;;;;;4807406;29;20046;-69
2022/08/26 02:37:05;;;;;;;33.70;3.42;;;19.20;99.90;;;;;;4807367;29;20058;-69
2022/08/26 02:39:32;;;;;;;29.60;3.42;;;19.30;99.90;;;;;;4807598;29;20042;-69
2022/08/26 02:41:58;;;;;;;35.28;3.70;;;19.40;99.90;;;;;;4807366;29;20043;-69
2022/08/26 02:44:24;;;;;;;26.10;3.15;;;19.10;99.90;;;;;;4807278;29;20523;-69
2022/08/26 02:46:51;;;;;;;27.48;3.38;;;20.20;99.90;;;;;;4807485;29;20051;-69
2022/08/26 02:49:18;;;;;;;21.10;3.30;;;21.00;99.90;;;;;;4807539;29;20051;-69
2022/08/26 02:51:45;;;;;;;16.60;2.63;;;20.40;99.90;;;;;;4792101;29;20138;-69
2022/08/26 02:54:11;;;;;;;30.02;3.83;;;21.10;99.90;;;;;;4777366;29;20057;-69
2022/08/26 02:56:37;;;;;;;30.83;3.20;;;19.60;99.90;;;;;;4807290;29;20091;-69
2022/08/26 02:59:03;;;;;;;24.58;4.47;;;;;;;;;;4806892;29;20437;-69
2022/08/26 03:01:31;;;;;;;25.08;3.00;;;20.90;99.90;;;;;;4806902;29;20046;-69
2022/08/26 03:03:58;;;;;;;31.42;3.58;;;20.20;99.90;;;;;;4806978;29;20094;-69
2022/08/26 03:06:24;;;;;;;22.00;3.42;;;20.70;99.90;;;;;;4806999;29;20055;-69
2022/08/26 03:08:51;;;;;;;28.25;3.17;;;20.80;99.90;;;;;;4807204;29;20112;-69
2022/08/26 03:11:18;;;;;;;35.65;3.55;;;20.40;99.90;;;;;;4791883;29;20062;-69
2022/08/26 03:13:45;;;;;;;29.13;4.10;;;18.90;99.90;;;;;;4791755;29;20050;-69
2022/08/26 03:16:12;;;;;;;24.92;4.57;;;;;;;;;;4806822;29;20047;-69
2022/08/26 03:18:38;;;;;;;26.05;3.65;;;21.00;99.90;;;;;;4806827;29;20129;-69
2022/08/26 03:21:13;;;;;;;22.38;3.10;;;19.80;99.90;;;;;;4806868;29;20565;-69
2022/08/26 03:23:39;;;;;;;29.92;3.72;;;20.10;99.90;;;;;;4807205;29;20105;-69
2022/08/26 03:26:06;;;;;;;28.50;3.75;;;20.00;99.90;;;;;;4806695;29;20514;-69
2022/08/26 03:28:32;;;;;;;20.70;3.40;;;19.10;99.90;;;;;;4806811;29;20050;-69
2022/08/26 03:30:58;;;;;;;29.17;3.45;;;20.70;99.90;;;;;;4806714;29;20055;-69
2022/08/26 03:33:25;;;;;;;22.88;4.88;;;18.80;99.90;;;;;;4791243;29;20042;-69
2022/08/26 03:35:51;;;;;;;30.38;4.13;;;20.20;99.90;;;;;;4806284;29;20050;-69
2022/08/26 03:38:20;;;;;;;47.33;4.43;;;20.00;99.90;;;;;;4791805;29;20047;-69
2022/08/26 03:40:46;;;;;;;28.13;4.07;;;19.60;99.90;;;;;;4791883;29;20141;-69
2022/08/26 03:43:14;;;;;;;38.10;4.00;;;20.20;99.90;;;;;;4806491;29;20116;-69
2022/08/26 03:45:41;;;;;;;33.22;3.90;;;18.70;99.90;;;;;;4806688;29;20051;-69
2022/08/26 03:48:07;;;;;;;27.23;3.72;;;19.80;99.90;;;;;;4806720;29;20046;-69
2022/08/26 03:50:34;;;;;;;22.83;3.67;;;19.00;99.90;;;;;;4806547;29;20043;-69
2022/08/26 03:53:00;;;;;;;23.80;3.42;;;19.80;99.90;;;;;;4791646;29;20038;-69
2022/08/26 03:55:30;;;;;;;22.45;3.92;;;20.00;99.90;;;;;;4806349;29;20141;-69
2022/08/26 03:57:57;;;;;;;27.90;3.63;;;20.90;99.90;;;;;;4806167;29;20042;-69
2022/08/26 04:00:23;;;;;;;31.85;3.55;;;19.70;99.90;;;;;;4791023;29;20059;-69
2022/08/26 04:02:50;;;;;;;27.90;3.75;;;20.90;99.90;;;;;;4806302;29;20059;-68
2022/08/26 04:05:18;;;;;;;26.58;3.72;;;18.70;99.90;;;;;;4806426;29;20162;-69
2022/08/26 04:07:45;;;;;;;27.40;3.63;;;20.80;99.90;;;;;;4806006;29;20055;-69
2022/08/26 04:10:12;;;;;;;31.20;3.85;;;20.30;99.90;;;;;;4806310;29;20408;-69
2022/08/26 04:12:39;;;;;;;28.80;4.13;;;18.60;99.90;;;;;;4806214;29;20089;-69
2022/08/26 04:15:09;;;;;;;26.00;4.07;;;19.90;99.90;;;;;;4806415;29;20098;-69
2022/08/26 04:17:35;;;;;;;25.13;3.70;;;20.60;99.90;;;;;;4806038;29;20500;-69
2022/08/26 04:20:01;;;;;;;34.03;3.72;;;;;;;;;;4791109;29;20049;-69
2022/08/26 04:22:27;;;;;;;24.50;3.53;;;20.80;99.90;;;;;;4805993;29;20097;-69
2022/08/26 04:24:53;;;;;;;23.02;3.65;;;20.70;99.90;;;;;;4805626;29;20496;-69
2022/08/26 04:27:19;;;;;;;23.45;3.45;;;19.00;99.90;;;;;;4775754;29;20043;-69
2022/08/26 04:29:45;;;;;;;21.77;3.70;;;20.60;99.90;;;;;;4790557;29;20039;-69
2022/08/26 04:32:11;;;;;;;19.77;3.10;;;20.30;99.90;;;;;;4790402;29;20062;-69
2022/08/26 04:34:37;;;;;;;25.05;3.92;;;19.80;99.90;;;;;;4805510;29;20076;-69
2022/08/26 04:37:03;;;;;;;19.88;3.25;;;20.70;99.90;;;;;;4805579;29;20047;-69
2022/08/26 04:39:30;;;;;;;29.23;3.15;;;18.90;99.90;;;;;;4790259;29;20508;-69
2022/08/26 04:41:56;;;;;;;19.92;2.72;;;20.00;99.90;;;;;;4805531;29;20054;-69
2022/08/26 04:44:24;;;;;;;16.80;2.90;;;19.80;99.90;;;;;;4805502;29;20511;-69
2022/08/26 04:46:50;;;;;;;22.88;3.38;;;20.70;99.90;;;;;;4805145;29;20062;-69
2022/08/26 04:49:16;;;;;;;18.33;3.08;;;;;;;;;;4805186;29;20515;-69
2022/08/26 04:51:42;;;;;;;15.90;4.95;;;20.80;99.90;;;;;;4805163;29;20112;-69
2022/08/26 04:54:08;;;;;;;18.33;3.55;;;;;;;;;;4805194;29;20051;-69
2022/08/26 04:56:37;;;;;;;24.65;3.40;;;19.70;99.90;;;;;;4805133;29;20043;-69
2022/08/26 04:59:06;;;;;;;34.28;4.20;;;18.80;99.90;;;;;;4804946;29;20070;-69
2022/08/26 05:01:33;;;;;;;30.88;3.70;;;19.90;99.90;;;;;;4805362;29;20065;-69
2022/08/26 05:04:00;;;;;;;30.05;3.50;;;19.70;99.90;;;;;;4805020;29;20115;-69
2022/08/26 05:06:26;;;;;;;22.60;3.55;;;20.60;99.90;;;;;;4805259;29;20094;-69
2022/08/26 05:08:53;;;;;;;24.38;3.53;;;18.60;99.90;;;;;;4790048;29;20065;-69
2022/08/26 05:11:19;;;;;;;20.48;4.47;;;20.50;99.90;;;;;;4790040;29;20046;-69
2022/08/26 05:13:45;;;;;;;15.05;3.50;;;;;;;;;;4789898;29;20078;-68
2022/08/26 05:16:12;;;;;;;23.75;3.85;;;20.30;99.90;;;;;;4805160;29;20061;-69
2022/08/26 05:18:40;;;;;;;29.45;5.03;;;20.10;99.90;;;;;;4804934;29;20042;-69
2022/08/26 05:21:06;;;;;;;27.45;3.30;;;19.20;99.90;;;;;;4789843;29;20093;-69
2022/08/26 05:23:35;;;;;;;29.50;3.33;;;19.50;99.90;;;;;;4804844;29;20146;-69
2022/08/26 05:26:01;;;;;;;25.58;3.80;;;18.50;99.90;;;;;;4804981;29;20050;-68
2022/08/26 05:28:28;;;;;;;32.65;3.50;;;18.90;99.90;;;;;;4789810;29;20156;-69
2022/08/26 05:30:54;;;;;;;22.75;4.00;;;18.50;99.90;;;;;;4804830;29;20400;-69
2022/08/26 05:33:21;;;;;;;26.45;4.63;;;18.30;99.90;;;;;;4804599;29;20047;-68
2022/08/26 05:35:47;;;;;;;41.97;3.92;;;;;;;;;;4789868;29;20050;-69
2022/08/26 05:38:16;;;;;;;47.70;3.72;;;18.50;99.90;;;;;;4789947;29;20042;-69
2022/08/26 05:40:45;;;;;;;27.58;3.10;;;19.40;99.90;;;;;;4804882;29;20136;-68
2022/08/26 05:43:12;;;;;;;30.15;3.75;;;19.20;99.90;;;;;;4805094;29;20078;-69
2022/08/26 05:45:46;;;;;;;30.05;3.47;;;18.30;99.90;;;;;;4789789;29;20050;-69
2022/08/26 05:48:14;;;;;;;27.50;3.10;;;20.20;99.90;;;;;;4804578;29;20059;-69
2022/08/26 05:50:48;;;;;;;24.05;2.80;;;19.10;99.90;;;;;;4804464;29;20059;-69
2022/08/26 05:53:17;;;;;;;19.55;2.92;;;18.90;99.90;;;;;;4789616;29;20054;-69
2022/08/26 05:55:49;;;;;;;27.77;3.13;;;20.10;99.90;;;;;;4804558;29;20054;-68
2022/08/26 05:58:18;;;;;;;19.65;3.17;;;19.00;99.90;;;;;;4806812;29;20129;-69
2022/08/26 06:00:45;;;;;;;22.52;3.10;;;19.30;99.90;;;;;;4808415;29;20090;-68
2022/08/26 06:03:11;;;;;;;18.63;3.17;;;18.50;99.90;;;;;;4808426;29;20055;-69
2022/08/26 06:05:40;;;;;;;19.23;2.67;;;18.70;99.90;;;;;;4808249;29;20545;-69
2022/08/26 06:08:15;;;;;;;19.50;2.67;;;18.70;99.90;;;;;;4808246;29;20130;-68
2022/08/26 06:10:54;;;;;;;31.65;4.30;;;19.60;99.90;;;;;;4808503;29;20061;-68
2022/08/26 06:13:25;;;;;;;25.75;3.47;;;18.50;99.90;;;;;;4808391;29;20596;-72
2022/08/26 06:15:52;;;;;;;17.45;2.60;;;20.40;99.90;;;;;;4808202;29;20539;-73
2022/08/26 06:18:26;;;;;;;32.53;3.85;;;20.50;99.90;;;;;;4793195;29;20051;-72
2022/08/26 06:20:53;;;;;;;27.05;2.92;;;19.30;99.90;;;;;;4807752;29;20096;-73
2022/08/26 06:26:04;;;;;;;18.08;3.08;;;19.90;99.90;;;;;;4794998;29;20062;-73
2022/08/26 06:28:31;;;;;;;23.70;2.90;;;20.30;99.90;;;;;;4807767;29;20046;-72
2022/08/26 06:30:57;;;;;;;24.73;3.13;;;18.60;99.90;;;;;;4807803;29;20054;-73
2022/08/26 06:33:24;;;;;;;25.58;3.17;;;19.60;99.90;;;;;;4792448;29;20047;-73
2022/08/26 06:35:51;;;;;;;19.20;3.10;;;18.60;99.90;;;;;;4807607;29;20057;-73
2022/08/26 06:38:17;;;;;;;23.88;3.10;;;20.20;99.90;;;;;;4792674;29;20567;-72
2022/08/26 06:40:47;;;;;;;33.03;3.13;;;18.40;99.90;;;;;;4807616;29;20050;-72
2022/08/26 06:43:14;;;;;;;23.40;2.72;;;19.30;99.90;;;;;;4792602;29;20077;-69
2022/08/26 06:45:40;;;;;;;24.73;3.58;;;19.20;99.90;;;;;;4792299;29;20556;-69
2022/08/26 06:48:06;;;;;;;18.15;2.97;;;;;;;;;;4807328;29;20042;-69
2022/08/26 06:50:33;;;;;;;21.13;2.85;;;19.50;99.90;;;;;;4807494;29;20412;-69
2022/08/26 06:52:59;;;;;;;28.63;3.58;;;;;;;;;;4807451;29;20054;-69
2022/08/26 06:55:26;;;;;;;24.20;3.13;;;18.40;99.90;;;;;;4806955;29;20046;-69
2022/08/26 06:57:52;;;;;;;21.38;3.58;;;;;;;;;;4806988;29;20039;-69
2022/08/26 07:00:19;;;;;;;18.75;2.55;;;18.90;99.90;;;;;;4806841;29;20070;-69
2022/08/26 07:02:45;;;;;;;21.45;2.53;;;20.40;99.90;;;;;;4807034;29;20055;-69
2022/08/26 07:05:11;;;;;;;22.38;2.38;;;20.60;99.90;;;;;;4791880;29;20165;-70
2022/08/26 07:07:37;;;;;;;22.67;3.30;;;;;;;;;;4807266;29;20524;-70
2022/08/26 07:10:04;;;;;;;20.02;3.22;;;20.20;99.90;;;;;;4805810;29;20042;-70
2022/08/26 07:12:30;;;;;;;23.63;2.38;;;;;;;;;;4807191;29;20053;-70
2022/08/26 07:14:56;;;;;;;20.15;2.33;;;19.90;99.90;;;;;;4806859;29;20058;-70
2022/08/26 07:17:22;;;;;;;29.40;2.55;;;18.50;99.90;;;;;;4806924;29;20051;-70
2022/08/26 07:19:48;;;;;;;15.25;1.90;;;;;;;;;;4806770;29;20058;-70
2022/08/26 07:22:15;;;;;;;31.15;2.78;;;;;;;;;;4806785;29;20050;-70
2022/08/26 07:24:41;;;;;;;14.45;2.00;;;18.60;99.90;;;;;;4806921;29;20047;-70
2022/08/26 07:27:11;;;;;;;21.35;1.98;;;19.80;99.90;;;;;;4776991;29;20050;-70
2022/08/26 07:29:38;;;;;;;22.63;2.17;;;20.60;99.90;;;;;;4807045;29;20444;-70
2022/08/26 07:32:05;;;;;;;15.40;2.53;;;20.80;99.90;;;;;;4806442;29;20046;-70
2022/08/26 07:34:31;;;;;;;18.73;2.10;;;19.90;99.90;;;;;;4776894;29;20514;-69
2022/08/26 07:36:57;;;;;;;18.35;2.22;;;;;;;;;;4806830;29;20038;-70
2022/08/26 07:39:24;;;;;;;14.80;2.50;;;19.80;99.90;;;;;;4806634;29;20119;-70
2022/08/26 07:41:51;;;;;;;13.13;2.72;;;20.70;99.90;;;;;;4806559;29;20054;-70
2022/08/26 07:44:18;;;;;;;23.95;2.50;;;20.80;99.90;;;;;;4806722;29;20073;-70
2022/08/26 07:46:44;;;;;;;10.85;2.05;;;20.80;99.90;;;;;;4806419;29;20054;-70
2022/08/26 07:49:10;;;;;;;23.80;2.08;;;20.60;99.90;;;;;;4791448;29;20141;-70
2022/08/26 07:51:37;;;;;;;17.23;2.13;;;20.60;99.90;;;;;;4806421;29;20055;-70
2022/08/26 07:54:04;;;;;;;15.48;2.10;;;20.80;99.90;;;;;;4806206;29;20049;-70
2022/08/26 07:56:30;;;;;;;18.50;2.40;;;;;;;;;;4790920;29;20047;-70
2022/08/26 07:58:56;;;;;;;13.82;2.30;;;18.70;99.90;;;;;;4806095;29;20126;-70
2022/08/26 08:01:24;;;;;;;19.52;2.45;;;19.90;99.90;;;;;;4806239;29;20469;-70
2022/08/26 08:03:52;;;;;;;19.60;2.45;;;19.00;99.90;;;;;;4791237;29;20043;-70
2022/08/26 08:06:24;;;;;;;11.88;1.77;;;20.50;99.90;;;;;;4805967;29;20133;-70
2022/08/26 08:08:50;;;;;;;22.20;2.33;;;19.90;99.90;;;;;;4805898;29;20518;-70
2022/08/26 08:11:19;;;;;;;13.25;1.90;;;18.80;99.90;;;;;;4790753;29;20057;-70
2022/08/26 08:13:45;;;;;;;15.30;2.08;;;20.60;99.90;;;;;;4791282;29;20046;-70
2022/08/26 08:16:10;;;;;;;21.35;2.60;;;20.70;99.90;;;;;;4791210;29;20050;-70
2022/08/26 08:18:36;;;;;;;20.00;2.10;;;20.00;99.90;;;;;;4805884;29;20046;-70
2022/08/26 08:21:02;;;;;;;24.83;2.83;;;19.90;99.90;;;;;;4805622;29;20047;-70
2022/08/26 08:23:30;;;;;;;22.75;2.45;;;20.20;99.90;;;;;;4791140;29;20374;-70
2022/08/26 08:26:09;;;;;;;24.35;2.38;;;19.40;99.90;;;;;;4791036;29;20046;-70
2022/08/26 08:28:37;;;;;;;24.45;2.70;;;20.50;99.90;;;;;;4805502;29;20055;-70
2022/08/26 08:31:03;;;;;;;22.55;2.40;;;;;;;;;;4790502;29;20051;-70
2022/08/26 08:33:30;;;;;;;23.55;2.28;;;19.40;99.90;;;;;;4805442;29;20107;-70
2022/08/26 08:35:57;;;;;;;20.63;1.75;;;20.50;99.90;;;;;;4805607;29;20484;-69
2022/08/26 08:38:23;;;;;;;16.05;1.92;;;;;;;;;;4805473;29;20042;-70
2022/08/26 08:40:49;;;;;;;20.85;2.53;;;18.40;99.90;;;;;;4805335;29;20054;-70
2022/08/26 08:43:31;;;;;;;16.90;2.28;;;19.30;99.90;;;;;;4805450;29;20196;-70
2022/08/26 08:46:02;;;;;;;15.23;1.95;;;18.50;99.90;;;;;;4790302;29;20055;-70
2022/08/26 08:48:34;;;;;;;25.23;3.17;;;19.50;99.90;;;;;;4805339;29;20051;-70
2022/08/26 08:51:17;;;;;;;15.65;2.25;;;19.60;99.90;;;;;;4805449;29;20050;-70
2022/08/26 08:53:46;;;;;;;21.10;2.78;;;20.10;99.90;;;;;;4805154;29;20118;-70
2022/08/26 08:56:15;;;;;;;13.25;2.00;;;18.60;99.90;;;;;;4805409;29;20397;-70
2022/08/26 08:59:13;;;;;;;22.45;2.33;;;19.70;99.90;;;;;;4789926;29;20054;-70
2022/08/26 09:02:01;;;;;;;16.45;2.38;;;18.60;99.90;;;;;;4805311;29;20051;-70
2022/08/26 09:05:07;;;;;;;19.38;2.10;;;18.50;99.90;;;;;;4805074;29;20053;-70
2022/08/26 09:07:39;;;;;;;27.50;2.47;;;20.40;99.90;;;;;;4805052;29;20050;-70
2022/08/26 09:10:29;;;;;;;16.97;2.27;;;18.30;99.90;;;;;;4804814;29;20070;-70
2022/08/26 09:12:55;;;;;;;15.43;2.72;;;18.30;99.90;;;;;;4805006;29;20054;-69
2022/08/26 09:15:42;;;;;;;20.90;2.20;;;19.40;99.90;;;;;;4805226;29;20130;-70
2022/08/26 09:18:56;;;;;;;15.30;2.10;;;19.40;99.90;;;;;;4804748;29;20043;-70
2022/08/26 09:21:24;;;;;;;13.02;2.08;;;18.40;99.90;;;;;;4774892;29;20085;-70
2022/08/26 09:23:52;;;;;;;13.93;2.42;;;19.50;99.90;;;;;;4804840;29;20484;-70
2022/08/26 09:26:37;;;;;;;21.05;3.20;;;19.80;99.90;;;;;;4804663;29;20042;-70
2022/08/26 09:29:10;;;;;;;11.32;2.50;;;19.60;99.90;;;;;;4804777;29;20107;-70
2022/08/26 09:31:37;;;;;;;14.25;1.77;;;20.10;99.90;;;;;;4804736;29;20060;-70
2022/08/26 09:34:24;;;;;;;14.98;1.95;;;20.40;99.90;;;;;;4808378;29;20043;-70
2022/08/26 09:36:52;;;;;;;17.27;2.10;;;19.40;99.90;;;;;;4793532;29;20039;-70
2022/08/26 09:39:26;;;;;;;19.17;2.30;;;18.70;99.90;;;;;;4793833;29;20050;-69
2022/08/26 09:42:04;;;;;;;17.67;2.00;;;19.70;99.90;;;;;;4808445;29;20082;-70
2022/08/26 09:44:30;;;;;;;20.50;2.22;;;;;;;;;;4808348;29;20053;-70
2022/08/26 09:47:05;;;;;;;16.90;1.92;;;20.60;99.90;;;;;;4793174;29;20080;-70
2022/08/26 09:49:38;;;;;;;15.18;1.80;;;18.50;99.90;;;;;;4808313;29;20523;-70
2022/08/26 09:52:16;;;;;;;15.93;1.92;;;20.60;99.90;;;;;;4808012;29;20089;-70
2022/08/26 09:54:44;;;;;;;14.48;2.03;;;18.60;99.90;;;;;;4808358;29;20384;-70
2022/08/26 09:57:26;;;;;;;15.73;2.13;;;19.70;99.90;;;;;;4808398;29;20115;-70
2022/08/26 09:59:52;;;;;;;16.05;2.30;;;20.60;99.90;;;;;;4807952;29;20074;-70
2022/08/26 10:02:32;;;;;;;15.75;2.17;;;19.20;99.90;;;;;;4808258;29;20057;-70
2022/08/26 10:05:00;;;;;;;15.70;2.30;;;20.00;99.90;;;;;;4808026;29;20054;-70
2022/08/26 10:07:47;;;;;;;12.50;1.90;;;20.60;99.90;;;;;;4808133;29;20055;-70
2022/08/26 10:10:18;;;;;;;12.40;2.00;;;20.00;99.90;;;;;;4792925;29;20103;-70
2022/08/26 10:13:01;;;;;;;14.57;1.70;;;18.80;99.90;;;;;;4808075;29;20082;-70
2022/08/26 10:15:34;;;;;;;25.35;2.75;;;19.80;99.90;;;;;;4807842;29;20561;-70
2022/08/26 10:18:13;;;;;;;17.33;2.30;;;20.40;99.90;;;;;;4807889;29;20046;-70
2022/08/26 10:21:03;;;;;;;21.48;2.28;;;19.80;99.90;;;;;;4807767;29;20053;-70
2022/08/26 10:23:35;;;;;;;22.98;2.55;;;20.50;99.90;;;;;;4807401;29;20069;-70
2022/08/26 10:26:23;;;;;;;10.98;1.90;;;19.70;99.90;;;;;;4807946;29;20156;-70
2022/08/26 10:29:11;;;;;;;19.13;2.42;;;20.30;99.90;;;;;;4807588;29;20061;-70
2022/08/26 10:31:45;;;;;;;13.85;2.10;;;20.20;99.90;;;;;;4807569;29;20085;-74
2022/08/26 10:34:12;;;;;;;19.27;2.08;;;19.80;99.90;;;;;;4807713;29;20078;-74
2022/08/26 10:36:49;;;;;;;17.25;1.90;;;19.60;99.90;;;;;;4807915;29;20461;-73
2022/08/26 10:39:24;;;;;;;17.73;2.60;;;19.70;99.90;;;;;;4807514;29;20043;-73
2022/08/26 10:41:55;;;;;;;13.55;2.25;;;19.70;99.90;;;;;;4808171;29;20066;-74
2022/08/26 10:44:24;;;;;;;23.33;2.83;;;19.90;99.90;;;;;;4793234;29;20098;-74
2022/08/26 10:46:55;;;;;;;20.75;2.90;;;19.50;99.90;;;;;;4794101;29;20051;-73
2022/08/26 10:49:21;;;;;;;12.70;2.10;;;19.90;99.90;;;;;;4808581;29;20062;-74
2022/08/26 10:52:10;;;;;;;19.48;2.40;;;18.70;99.90;;;;;;4808677;29;20043;-74
2022/08/26 10:54:46;;;;;;;15.60;2.15;;;19.90;99.90;;;;;;4808091;29;20133;-73
2022/08/26 10:57:30;;;;;;;18.50;2.40;;;20.70;99.90;;;;;;4807385;29;20047;-74
2022/08/26 10:59:56;;;;;;;15.45;2.92;;;;;;;;;;4807365;29;20142;-73
2022/08/26 11:02:23;;;;;;;13.45;2.58;;;;;;;;;;4807764;29;20046;-74
2022/08/26 11:04:59;;;;;;;16.35;2.55;;;19.70;99.90;;;;;;4807475;29;20083;-74
2022/08/26 11:07:35;;;;;;;19.55;2.30;;;19.90;99.90;;;;;;4792133;29;20043;-73
2022/08/26 11:10:16;;;;;;;19.33;2.38;;;20.00;99.90;;;;;;4807499;29;20081;-74
2022/08/26 11:12:41;;;;;;;12.45;2.00;;;19.00;99.90;;;;;;4807460;29;20453;-74
2022/08/26 11:15:32;;;;;;;21.40;2.38;;;19.20;99.90;;;;;;4807025;29;20058;-73
2022/08/26 11:18:01;;;;;;;19.27;2.80;;;20.80;99.90;;;;;;4785339;29;20051;-74
2022/08/26 11:20:27;;;;;;;13.27;1.88;;;20.90;99.90;;;;;;4806870;29;20492;-73
2022/08/26 11:22:54;;;;;;;8.77;1.95;;;21.00;99.90;;;;;;4807125;29;20043;-74
2022/08/26 11:25:22;;;;;;;21.27;2.30;;;20.50;99.90;;;;;;4806655;29;20042;-74
2022/08/26 11:27:51;;;;;;;13.82;1.83;;;20.30;99.90;;;;;;4806921;29;20070;-74
2022/08/26 11:30:18;;;;;;;19.33;2.15;;;;;;;;;;4791895;29;20039;-73
2022/08/26 11:32:56;;;;;;;13.20;2.20;;;20.90;99.90;;;;;;4806736;29;20051;-74
2022/08/26 11:35:24;;;;;;;10.07;2.22;;;20.50;99.90;;;;;;4806761;29;20043;-74
2022/08/26 11:37:56;;;;;;;22.30;2.50;;;20.10;99.90;;;;;;4791651;29;20129;-74
2022/08/26 11:40:28;;;;;;;14.48;2.90;;;20.60;99.90;;;;;;4806791;29;20055;-74
2022/08/26 11:43:17;;;;;;;12.15;1.92;;;20.20;99.90;;;;;;4806462;29;20067;-74
2022/08/26 11:45:46;;;;;;;11.98;1.98;;;20.70;99.90;;;;;;4806388;29;20038;-74
2022/08/26 11:48:16;;;;;;;10.88;2.03;;;20.70;98.50;;;;;;4791219;29;20104;-74
2022/08/26 11:51:03;;;;;;;18.08;2.88;;;21.50;99.90;;;;;;4791697;29;20051;-74
2022/08/26 11:53:32;;;;;;;14.90;2.70;;;20.50;99.30;;;;;;4806636;29;20165;-70
2022/08/26 11:56:02;;;;;;;19.27;3.63;;;20.20;99.90;;;;;;4805762;29;20047;-70
2022/08/26 11:58:29;;;;;;;11.68;2.28;;;20.10;99.90;;;;;;4807371;29;20066;-70
2022/08/26 12:01:06;;;;;;;15.02;2.28;;;21.10;99.90;;;;;;4791010;29;20058;-70
2022/08/26 12:03:42;;;;;;;17.50;2.75;;;21.10;99.90;;;;;;4791123;29;20054;-70
2022/08/26 12:06:33;;;;;;;12.50;1.85;;;21.50;99.90;;;;;;4806270;29;20074;-70
2022/08/26 12:09:04;;;;;;;17.23;2.50;;;20.50;99.90;;;;;;4790534;29;20054;-70
2022/08/26 12:11:35;;;;;;;20.55;2.75;;;21.60;99.90;;;;;;4790964;29;20043;-74
2022/08/26 12:14:06;;;;;;;12.07;2.58;;;20.50;98.80;;;;;;4805907;29;20047;-75
2022/08/26 12:16:35;;;;;;;18.95;2.45;;;20.60;98.70;;;;;;4806125;29;20042;-74
2022/08/26 12:19:25;;;;;;;13.90;2.28;;;20.80;98.70;;;;;;4805979;29;20130;-74
2022/08/26 12:21:56;;;;;;;17.17;2.08;;;21.10;99.90;;;;;;4805739;29;20125;-74
2022/08/26 12:24:24;;;;;;;16.40;2.72;;;;;;;;;;4790862;29;20059;-74
2022/08/26 12:26:50;;;;;;;13.93;2.40;;;;;;;;;;4806034;29;20055;-74
2022/08/26 12:29:26;;;;;;;16.35;2.30;;;20.50;99.90;;;;;;4805566;29;20588;-74
2022/08/26 12:32:12;;;;;;;9.15;2.20;;;21.40;99.90;;;;;;4805494;29;20497;-74
2022/08/26 12:34:43;;;;;;;8.07;1.88;;;19.60;99.90;;;;;;4790620;29;20047;-74
2022/08/26 12:37:11;;;;;;;14.70;2.70;;;19.90;99.90;;;;;;4806156;29;20459;-74
2022/08/26 12:39:40;;;;;;;14.77;2.13;;;20.30;99.90;;;;;;4806042;29;20386;-74
2022/08/26 12:42:14;;;;;;;11.85;2.05;;;21.00;98.30;;;;;;4805694;29;20092;-74
2022/08/26 12:44:59;;;;;;;10.27;1.70;;;20.40;99.90;;;;;;4805459;29;20089;-74
2022/08/26 12:47:41;;;;;;;9.27;2.33;;;19.50;99.90;;;;;;4805385;29;20600;-74
2022/08/26 12:50:18;;;;;;;7.70;1.95;;;21.20;99.90;;;;;;4790326;29;20173;-74
2022/08/26 12:53:19;;;;;;;7.18;1.98;;;19.60;99.90;;;;;;4805316;29;20046;-74
2022/08/26 12:55:57;;;;;;;10.45;2.10;;;21.40;99.90;;;;;;4776998;29;20106;-74
2022/08/26 12:58:23;;;;;;;18.23;2.45;;;;;;;;;;4805233;29;20135;-74
2022/08/26 13:01:05;;;;;;;11.82;2.15;;;20.40;99.90;;;;;;4805278;29;20134;-74
2022/08/26 13:03:33;;;;;;;22.23;2.90;;;19.60;99.90;;;;;;4805276;29;20107;-74